• Join FlightAware (Why Join?)
  • Login
  • US Flag 
06:31PM EDT


 

Airport Tracker/Info


-or-


 

Live Flight TrackerFlight Track Log ✈ N935SS ✈ 18-Apr-2013 ✈ KBED - KHPN

Flight Track Log - Related Links

Times and Time Zones

All times are in EDT time to prevent confusion due to time zone crossing. See the N935SS flight status page for this flight to view local times or setup timezone preferences in your user account.

Time Position Orientation Groundspeed Altitude Reporting Facility
EDT Latitude Longitude Course Direction KTS MPH feet Rate Location/Type
11:29AM 42.5167 -71.2500 32° Northeast 208 239 2,100  Level KA90
11:30AM 42.5333 -71.3000 294° West 203 234 2,200 960 Climbing KA90
11:31AM 42.5000 -71.3667 236° Southwest 223 257 4,100 1,560 Climbing KA90
11:32AM 42.4500 -71.4333 225° Southwest 251 289 5,400 2,400 Climbing KA90
11:33AM 42.4000 -71.5000 225° Southwest 252 290 8,900 3,120 Climbing KA90
11:34AM 42.3697 -71.5325 218° Southwest 273 314 9,900 1,440 Climbing Boston Center
11:35AM 42.3161 -71.6258 232° Southwest 325 374 11,000 1,980 Climbing Boston Center
11:36AM 42.2878 -71.7442 252° West 325 374 13,900 1,560 Climbing Boston Center
11:37AM 42.2425 -71.8653 243° Southwest 341 392 14,100  Climbing Boston Center
11:38AM 42.2014 -71.9747 243° Southwest 359 413 14,000 -60 Descending Boston Center
11:39AM 42.1519 -72.1097 244° Southwest 364 419 14,000  Level Boston Center
11:40AM 42.1106 -72.2192 243° Southwest 364 419 14,000  Level Boston Center
11:41AM 42.0628 -72.3533 244° Southwest 364 419 14,000  Level Boston Center
11:42AM 42.0231 -72.4625 244° Southwest 364 419 14,000  Level Boston Center
11:43AM 41.9753 -72.5964 244° Southwest 364 419 14,000  Level Boston Center
11:44AM 41.9311 -72.7081 242° Southwest 364 419 14,000 -360 Level Boston Center
11:45AM 41.8828 -72.8278 242° Southwest 364 419 13,300 -1,020 Descending Boston Center
11:46AM 41.8344 -72.9472 242° Southwest 369 425 12,000 -660 Descending Boston Center
11:47AM 41.7797 -73.0747 240° Southwest 369 425 12,000  Level Boston Center
11:48AM 41.7311 -73.1939 241° Southwest 369 425 12,000  Level Boston Center
11:49AM 41.6800 -73.3100 240° Southwest 369 425 12,000 -60 Level Boston Center
11:50AM 41.6356 -73.4122 240° Southwest 361 415 11,900 -1,080 Descending Boston Center
11:51AM 41.5667 -73.5667 239° Southwest 282 325 9,400 -1,620 Descending New York TRACON
11:52AM 41.5333 -73.6500 242° Southwest 264 304 7,900 -1,500 Descending New York TRACON
11:53AM 41.5000 -73.7333 242° Southwest 252 290 6,400 -1,500 Descending New York TRACON
11:54AM 41.4667 -73.8167 242° Southwest 248 285 4,900 -1,500 Descending New York TRACON
11:55AM 41.4167 -73.8667 217° Southwest 244 281 3,600 -960 Descending New York TRACON
11:56AM 41.3500 -73.8667 180° South 242 278 3,000 -300 Descending New York TRACON
11:57AM 41.2833 -73.8667 180° South 244 281 3,000 -480 Level New York TRACON
11:58AM 41.2167 -73.8167 151° Southeast 247 284 2,100 -540 Descending New York TRACON
11:59AM 41.1833 -73.7833 143° Southeast 161 185 2,000 -120 Descending New York TRACON
12:00PM 41.1333 -73.7667 166° South 141 162 1,900 -360 Descending New York TRACON
12:01PM 41.1167 -73.7333 124° Southeast 118 136 1,300 -600 Descending New York TRACON
12:02PM 41.0833 -73.7167 159° South 121 139 700 -600 Descending New York TRACON
12:04PM 41.0669 -73.7076 255° West  Level Estimated
12:11PM 41.0667 -73.7000 255° West  Level FlightAware Approximate
12:12PM 41.0669 -73.7076 255° West  Level Estimated